Time;durP1;ratioP1;P1;durP2;ratioP2;P2;SDS_P1;SDS_P2;PMS_P1;PMS_P2;Temp;Humidity;BMP_temperature;BMP_pressure;BME280_temperature;BME280_humidity;BME280_pressure;Samples;Min_cycle;Max_cycle;Signal;HPM_P1;HPM_P2
2023/10/13 00:02:04;;;;;;;7.07;3.22;;;18.70;99.90;;;;;;5080092;28;20040;-68
2023/10/13 00:04:35;;;;;;;8.27;3.22;;;18.60;99.90;;;;;;5081099;28;20036;-68
2023/10/13 00:07:09;;;;;;;7.45;3.20;;;18.60;99.90;;;;;;5062433;28;20696;-69
2023/10/13 00:09:40;;;;;;;4.40;3.30;;;18.70;99.90;;;;;;5082882;28;20045;-67
2023/10/13 00:12:14;;;;;;;7.82;2.88;;;18.60;99.90;;;;;;5083100;28;20071;-68
2023/10/13 00:14:45;;;;;;;;;;;18.60;99.90;;;;;;5060598;28;20057;-67
2023/10/13 00:17:20;;;;;;;6.88;2.85;;;18.60;99.90;;;;;;5072544;28;19927;-69
2023/10/13 00:19:52;;;;;;;7.20;3.92;;;18.60;99.90;;;;;;5080297;28;20051;-69
2023/10/13 00:22:19;;;;;;;8.18;2.80;;;18.60;99.90;;;;;;5067597;28;20420;-68
2023/10/13 00:24:54;;;;;;;8.30;3.05;;;18.60;99.90;;;;;;5071244;28;20040;-69
2023/10/13 00:30:22;;;;;;;7.63;3.42;;;18.50;99.90;;;;;;5068785;28;20047;-69
2023/10/13 00:32:57;;;;;;;5.00;2.97;;;18.40;99.90;;;;;;5065598;28;20052;-69
2023/10/13 00:35:36;;;;;;;5.85;2.80;;;18.50;99.90;;;;;;5068629;28;20048;-69
2023/10/13 00:38:13;;;;;;;4.47;2.55;;;18.50;99.90;;;;;;5069276;28;20048;-69
2023/10/13 00:41:50;;;;;;;7.43;3.03;;;18.50;99.90;;;;;;5040563;28;20571;-68
2023/10/13 00:43:34;;;;;;;8.10;3.13;;;18.50;99.90;;;;;;5075182;28;20052;-68
2023/10/13 00:46:07;;;;;;;;;;;18.50;99.90;;;;;;5057805;28;20513;-70
2023/10/13 00:48:45;;;;;;;10.80;4.32;;;18.50;99.90;;;;;;5046025;28;19924;-68
2023/10/13 00:51:32;;;;;;;5.93;3.25;;;18.60;99.90;;;;;;5076905;28;20036;-67
2023/10/13 00:54:11;;;;;;;7.25;2.80;;;18.60;99.90;;;;;;5068336;28;20040;-69
2023/10/13 00:56:46;;;;;;;6.97;3.28;;;18.60;99.90;;;;;;5057801;28;20870;-69
2023/10/13 00:59:23;;;;;;;7.97;3.85;;;18.60;99.90;;;;;;5065252;28;20128;-67
2023/10/13 01:01:55;;;;;;;7.93;3.08;;;18.60;99.90;;;;;;5061639;28;20036;-68
2023/10/13 01:04:31;;;;;;;6.17;3.10;;;18.70;99.90;;;;;;5077813;28;20043;-69
2023/10/13 01:07:04;;;;;;;8.32;3.35;;;18.70;99.90;;;;;;5061368;28;20349;-69
2023/10/13 01:09:46;;;;;;;5.10;2.90;;;18.60;99.90;;;;;;5065965;28;20049;-68
2023/10/13 01:12:18;;;;;;;5.67;3.40;;;18.70;99.90;;;;;;5061452;28;20566;-69
2023/10/13 01:14:51;;;;;;;6.88;2.85;;;18.70;99.90;;;;;;5066140;28;20036;-69
2023/10/13 01:17:18;;;;;;;9.65;3.17;;;18.70;99.90;;;;;;5067298;28;20067;-68
2023/10/13 01:19:50;;;;;;;7.50;3.08;;;18.70;99.90;;;;;;5079334;28;20122;-68
2023/10/13 01:22:23;;;;;;;6.85;3.20;;;18.70;99.90;;;;;;5051977;28;20032;-69
2023/10/13 01:25:04;;;;;;;7.60;4.13;;;18.70;99.90;;;;;;5064065;28;20044;-69
2023/10/13 01:27:38;;;;;;;6.03;2.58;;;18.60;99.90;;;;;;5052324;28;20040;-69
2023/10/13 01:30:11;;;;;;;6.15;4.07;;;18.60;99.90;;;;;;5080163;28;20148;-67
2023/10/13 01:32:46;;;;;;;;;;;18.50;99.90;;;;;;5066593;28;20048;-69
2023/10/13 01:35:13;;;;;;;8.02;2.85;;;18.50;99.90;;;;;;5061652;28;20347;-68
2023/10/13 01:37:40;;;;;;;7.05;2.90;;;18.40;99.90;;;;;;5043768;28;20044;-68
2023/10/13 01:40:07;;;;;;;6.80;3.13;;;18.30;99.90;;;;;;5067957;28;20043;-69
2023/10/13 01:42:36;;;;;;;4.38;2.95;;;18.30;99.90;;;;;;5061017;28;20036;-69
2023/10/13 01:45:08;;;;;;;5.28;2.70;;;18.20;99.90;;;;;;5064578;28;20041;-69
2023/10/13 01:47:41;;;;;;;7.97;3.50;;;18.10;99.90;;;;;;5065231;28;20043;-67
2023/10/13 01:50:19;;;;;;;5.97;3.15;;;18.00;99.90;;;;;;5061931;28;20040;-67
2023/10/13 01:52:59;;;;;;;8.52;3.30;;;18.00;99.90;;;;;;5058215;28;20427;-69
2023/10/13 01:55:39;;;;;;;5.15;2.65;;;17.90;99.90;;;;;;5071456;28;20067;-69
2023/10/13 01:58:13;;;;;;;9.15;3.92;;;17.80;99.90;;;;;;5062816;28;20106;-68
2023/10/13 02:00:45;;;;;;;6.55;2.90;;;17.80;99.90;;;;;;5052387;28;20036;-68
2023/10/13 02:03:17;;;;;;;6.65;3.33;;;17.70;99.90;;;;;;5073868;28;20046;-69
2023/10/13 02:05:52;;;;;;;5.68;3.22;;;17.70;99.90;;;;;;5055475;28;20043;-69
2023/10/13 02:08:25;;;;;;;9.07;3.25;;;17.70;99.90;;;;;;5059853;28;20032;-69
2023/10/13 02:10:58;;;;;;;5.15;2.50;;;17.60;99.90;;;;;;5063030;28;20048;-69
2023/10/13 02:13:26;;;;;;;6.07;2.60;;;17.60;99.90;;;;;;5070254;28;20053;-67
2023/10/13 02:15:57;;;;;;;5.57;2.85;;;17.50;99.90;;;;;;5063760;28;20119;-69
2023/10/13 02:18:41;;;;;;;8.20;2.83;;;17.50;99.90;;;;;;5061059;28;20040;-69
2023/10/13 02:21:14;;;;;;;7.25;2.72;;;17.40;99.90;;;;;;5085040;28;20799;-69
2023/10/13 02:23:59;;;;;;;5.47;2.92;;;17.40;99.90;;;;;;5063469;28;20592;-67
2023/10/13 02:26:31;;;;;;;5.63;3.25;;;17.30;99.90;;;;;;5081591;28;20498;-69
2023/10/13 02:29:07;;;;;;;8.25;3.20;;;17.30;99.90;;;;;;5066723;28;20048;-69
2023/10/13 02:31:40;;;;;;;8.65;3.03;;;17.30;99.90;;;;;;5063593;28;20415;-68
2023/10/13 02:34:13;;;;;;;7.78;3.15;;;17.20;99.90;;;;;;5071345;28;20069;-70
2023/10/13 02:36:49;;;;;;;5.82;2.50;;;17.10;99.90;;;;;;5061233;28;20514;-69
2023/10/13 02:39:16;;;;;;;10.48;4.53;;;17.10;99.90;;;;;;5061918;28;20133;-69
2023/10/13 02:41:48;;;;;;;7.65;3.08;;;17.00;99.90;;;;;;5064457;28;20476;-68
2023/10/13 02:44:28;;;;;;;6.00;3.08;;;17.00;99.90;;;;;;5063992;28;20047;-67
2023/10/13 02:46:59;;;;;;;9.70;3.15;;;17.00;99.90;;;;;;5060669;28;20083;-68
2023/10/13 02:49:33;;;;;;;6.75;3.33;;;17.00;99.90;;;;;;5069578;28;20098;-67
2023/10/13 02:52:07;;;;;;;6.05;3.42;;;17.00;99.90;;;;;;5050299;28;20055;-69
2023/10/13 02:54:46;;;;;;;4.35;2.80;;;16.90;99.90;;;;;;5070746;28;20404;-69
2023/10/13 02:57:15;;;;;;;6.82;2.58;;;16.90;99.90;;;;;;5063854;28;20036;-70
2023/10/13 02:59:47;;;;;;;5.95;3.08;;;16.90;99.90;;;;;;5049460;28;20045;-68
2023/10/13 03:02:29;;;;;;;7.05;3.03;;;16.90;99.90;;;;;;5052298;28;20046;-67
2023/10/13 03:05:09;;;;;;;10.18;4.07;;;16.80;99.90;;;;;;5054443;28;20055;-68
2023/10/13 03:07:36;;;;;;;13.20;4.43;;;16.70;99.90;;;;;;5066174;28;20044;-68
2023/10/13 03:10:12;;;;;;;6.73;4.07;;;16.60;99.90;;;;;;5061403;28;20127;-69
2023/10/13 03:12:48;;;;;;;9.13;4.10;;;16.50;99.90;;;;;;5063162;28;20130;-70
2023/10/13 03:15:22;;;;;;;8.40;3.97;;;16.40;99.90;;;;;;5074422;28;20033;-69
2023/10/13 03:17:49;;;;;;;9.88;3.88;;;16.20;99.90;;;;;;5055112;28;20102;-69
2023/10/13 03:20:30;;;;;;;12.70;4.30;;;16.20;99.90;;;;;;5061136;28;20051;-68
2023/10/13 03:23:09;;;;;;;9.80;4.35;;;16.10;99.90;;;;;;5061732;28;20047;-69
2023/10/13 03:25:43;;;;;;;8.05;3.67;;;16.00;99.90;;;;;;5055852;28;20047;-67
2023/10/13 03:28:16;;;;;;;10.68;4.05;;;15.90;99.90;;;;;;5085160;28;20100;-68
2023/10/13 03:30:52;;;;;;;7.60;3.15;;;15.80;99.90;;;;;;5082088;28;20051;-69
2023/10/13 03:33:27;;;;;;;10.95;4.05;;;15.80;99.90;;;;;;5065555;28;20052;-68
2023/10/13 03:36:05;;;;;;;8.88;4.10;;;15.90;99.90;;;;;;5077385;28;20423;-68
2023/10/13 03:38:39;;;;;;;11.73;3.50;;;16.00;99.90;;;;;;5082209;28;20048;-68
2023/10/13 03:41:24;;;;;;;9.43;3.15;;;15.90;99.90;;;;;;5081098;28;20421;-68
2023/10/13 03:44:08;;;;;;;11.05;3.78;;;15.80;99.90;;;;;;5054511;28;20032;-69
2023/10/13 03:46:45;;;;;;;7.03;3.33;;;15.70;99.90;;;;;;5082251;28;20060;-69
2023/10/13 03:49:21;;;;;;;9.05;4.53;;;15.60;99.90;;;;;;5059627;28;20040;-68
2023/10/13 03:51:55;;;;;;;7.60;3.35;;;15.50;99.90;;;;;;5070799;28;20456;-67
2023/10/13 03:54:22;;;;;;;10.63;2.85;;;15.40;99.90;;;;;;5080892;28;20060;-69
2023/10/13 03:56:56;;;;;;;8.15;3.20;;;15.40;99.90;;;;;;5064051;28;20140;-69
2023/10/13 03:59:24;;;;;;;8.30;3.63;;;15.30;99.90;;;;;;5079298;28;20511;-69
2023/10/13 04:01:59;;;;;;;17.75;7.15;;;15.30;99.90;;;;;;5069566;28;20128;-68
2023/10/13 04:04:34;;;;;;;19.00;9.20;;;15.20;99.90;;;;;;5053266;28;20033;-68
2023/10/13 04:12:21;;;;;;;10.40;7.93;;;15.10;99.90;;;;;;5077557;28;20040;-69
2023/10/13 04:17:44;;;;;;;9.88;6.00;;;15.00;99.90;;;;;;5077346;28;20043;-68
2023/10/13 04:20:32;;;;;;;17.17;9.27;;;15.00;99.90;;;;;;5057453;28;20076;-69
2023/10/13 04:23:18;;;;;;;18.85;10.25;;;15.00;99.90;;;;;;5063843;28;20120;-68
2023/10/13 04:39:00;;;;;;;5.80;3.45;;;15.00;99.90;;;;;;5066696;28;20472;-69
2023/10/13 04:58:27;;;;;;;10.02;3.40;;;14.80;99.90;;;;;;5059833;28;20048;-67
2023/10/13 05:46:48;;;;;;;10.43;4.95;;;14.00;99.90;;;;;;5082195;28;20040;-69
2023/10/13 05:51:57;;;;;;;8.05;4.25;;;13.90;99.90;;;;;;5067830;28;20068;-68
2023/10/13 06:28:41;;;;;;;9.48;3.40;;;13.90;99.90;;;;;;5076652;28;20052;-69
2023/10/13 06:31:21;;;;;;;10.77;4.13;;;13.90;99.90;;;;;;5046597;28;20692;-68
2023/10/13 06:33:55;;;;;;;10.77;4.40;;;13.90;99.90;;;;;;5061934;28;20040;-68
2023/10/13 06:36:22;;;;;;;8.60;3.95;;;14.00;99.90;;;;;;5049539;28;20032;-67
2023/10/13 06:39:34;;;;;;;6.45;3.72;;;14.00;99.90;;;;;;5082006;28;20036;-70
2023/10/13 06:41:41;;;;;;;6.57;3.55;;;14.00;99.90;;;;;;5066426;28;20068;-68
2023/10/13 06:44:17;;;;;;;9.50;4.07;;;14.10;99.90;;;;;;5068109;28;20072;-69
2023/10/13 06:46:49;;;;;;;12.23;6.03;;;14.20;99.90;;;;;;5083274;28;20036;-69
2023/10/13 06:49:23;;;;;;;8.33;4.37;;;14.20;99.90;;;;;;5067785;28;20067;-70
2023/10/13 06:51:49;;;;;;;21.00;12.45;;;14.20;99.90;;;;;;5067255;28;20041;-70
2023/10/13 06:54:21;;;;;;;12.02;7.90;;;14.30;99.90;;;;;;5055362;28;20569;-70
2023/10/13 06:56:54;;;;;;;8.75;5.55;;;14.30;99.90;;;;;;5075688;28;20036;-68
2023/10/13 06:59:27;;;;;;;11.73;6.13;;;14.40;99.90;;;;;;5062438;28;20043;-70
2023/10/13 07:02:06;;;;;;;10.57;4.88;;;14.40;99.90;;;;;;5067435;28;20043;-70
2023/10/13 07:04:39;;;;;;;8.75;4.10;;;14.40;99.90;;;;;;5077611;28;20124;-70
2023/10/13 07:07:11;;;;;;;12.60;4.03;;;14.50;99.90;;;;;;5069738;28;20044;-69
2023/10/13 07:09:49;;;;;;;10.10;4.40;;;14.50;99.90;;;;;;5066827;28;20044;-71
2023/10/13 07:12:33;;;;;;;7.38;3.72;;;14.60;99.90;;;;;;5063688;28;20419;-68
2023/10/13 07:15:03;;;;;;;7.80;4.20;;;14.60;99.90;;;;;;5076546;28;20033;-70
2023/10/13 07:17:37;;;;;;;11.00;3.72;;;14.70;99.90;;;;;;5059781;28;20128;-69
2023/10/13 07:20:15;;;;;;;9.25;4.55;;;14.80;99.90;;;;;;5085632;28;20046;-69
2023/10/13 07:22:57;;;;;;;9.85;4.20;;;14.80;99.90;;;;;;5084968;28;20144;-68
2023/10/13 07:25:26;;;;;;;10.25;5.20;;;15.00;99.90;;;;;;5059389;28;20132;-68
2023/10/13 07:27:54;;;;;;;10.32;5.18;;;15.10;99.90;;;;;;5074836;28;20050;-70
2023/10/13 07:30:27;;;;;;;7.32;3.65;;;15.20;99.90;;;;;;5082488;28;20416;-68
2023/10/13 07:32:59;;;;;;;7.43;3.67;;;15.40;99.90;;;;;;5063764;28;20048;-69
2023/10/13 07:35:31;;;;;;;7.50;2.67;;;15.50;99.90;;;;;;5081584;28;20055;-68
2023/10/13 07:37:59;;;;;;;4.68;2.47;;;15.70;99.90;;;;;;5065949;28;20063;-69
2023/10/13 07:43:00;;;;;;;6.47;2.85;;;16.20;99.90;;;;;;5064083;28;20048;-70
2023/10/13 07:45:38;;;;;;;;;;;16.40;99.90;;;;;;5064860;28;20043;-68
2023/10/13 07:48:20;;;;;;;5.47;2.15;;;16.60;99.90;;;;;;5070452;28;19966;-70
2023/10/13 07:51:01;;;;;;;7.38;2.35;;;16.80;99.90;;;;;;5059031;28;20044;-68
2023/10/13 07:53:39;;;;;;;11.27;2.53;;;17.10;99.90;;;;;;5080887;28;20571;-70
2023/10/13 07:56:11;;;;;;;8.13;2.40;;;17.50;99.90;;;;;;5062832;28;20078;-69
2023/10/13 07:59:01;;;;;;;3.90;1.80;;;17.80;99.90;;;;;;5054127;28;20037;-69
2023/10/13 08:01:34;;;;;;;7.90;2.47;;;18.10;99.90;;;;;;5059013;28;20131;-69
2023/10/13 08:04:12;;;;;;;4.30;1.95;;;18.30;99.90;;;;;;5067509;28;20053;-68
2023/10/13 08:06:45;;;;;;;6.28;2.80;;;18.50;99.90;;;;;;5072373;28;20036;-70
2023/10/13 08:09:30;;;;;;;9.13;2.53;;;18.60;99.90;;;;;;5054097;28;20033;-68
2023/10/13 08:11:59;;;;;;;11.70;2.30;;;18.90;99.90;;;;;;5079599;28;20131;-69
2023/10/13 08:14:33;;;;;;;5.18;2.10;;;19.00;99.90;;;;;;5060172;28;20522;-69
2023/10/13 08:17:10;;;;;;;5.43;2.20;;;19.10;99.90;;;;;;5065358;28;20131;-68
2023/10/13 08:19:45;;;;;;;8.88;2.58;;;19.30;99.90;;;;;;5079262;28;20052;-69
2023/10/13 08:27:34;;;;;;;5.80;1.90;;;19.60;99.90;;;;;;5058333;28;20043;-70
2023/10/13 08:35:10;;;;;;;7.22;2.50;;;19.90;99.90;;;;;;5078167;28;20435;-70
2023/10/13 08:43:13;;;;;;;6.90;2.50;;;20.10;99.90;;;;;;5081222;28;20124;-69
2023/10/13 08:48:17;;;;;;;7.20;2.03;;;20.20;99.90;;;;;;5077917;28;20040;-67
2023/10/13 09:09:34;;;;;;;4.70;1.95;;;21.00;99.90;;;;;;5076704;28;20097;-68
2023/10/13 09:12:13;;;;;;;5.03;2.38;;;21.00;99.90;;;;;;5080390;28;20045;-70
2023/10/13 09:15:05;;;;;;;5.43;2.00;;;21.20;99.90;;;;;;5078320;28;20506;-69
2023/10/13 09:23:25;;;;;;;4.53;2.25;;;21.50;99.90;;;;;;5079201;28;20400;-70
2023/10/13 09:26:12;;;;;;;7.22;3.08;;;21.50;99.40;;;;;;5074738;28;20099;-68
2023/10/13 09:28:44;;;;;;;7.00;2.17;;;21.60;99.60;;;;;;5078833;28;20035;-70
2023/10/13 09:31:26;;;;;;;8.07;2.45;;;21.70;99.90;;;;;;5079234;28;20040;-70
2023/10/13 09:33:58;;;;;;;3.78;2.22;;;21.80;99.10;;;;;;5075814;28;20046;-68
2023/10/13 09:36:29;;;;;;;4.72;2.42;;;21.80;98.40;;;;;;5076820;28;20037;-70
2023/10/13 09:39:12;;;;;;;8.48;2.55;;;21.80;98.70;;;;;;5079334;28;20408;-70
2023/10/13 09:41:44;;;;;;;4.18;2.08;;;21.90;98.00;;;;;;5065044;28;20420;-69
2023/10/13 09:44:17;;;;;;;4.25;2.10;;;22.00;97.20;;;;;;5059239;28;20037;-70
2023/10/13 09:46:49;;;;;;;;;;;22.10;96.90;;;;;;5064445;28;20431;-68
2023/10/13 09:49:44;;;;;;;4.88;1.92;;;22.10;96.00;;;;;;5075731;28;20398;-69
2023/10/13 09:52:25;;;;;;;7.05;2.88;;;22.10;95.40;;;;;;5079190;28;20043;-69
2023/10/13 09:55:19;;;;;;;4.50;2.70;;;22.20;95.20;;;;;;5061533;28;20040;-69
2023/10/13 09:57:59;;;;;;;5.78;2.30;;;22.30;95.70;;;;;;5078241;28;20040;-70
2023/10/13 10:00:46;;;;;;;7.82;2.53;;;22.30;94.40;;;;;;5074416;28;20132;-69
2023/10/13 10:06:30;;;;;;;4.55;2.10;;;22.50;93.90;;;;;;5051237;28;20051;-69
2023/10/13 10:09:13;;;;;;;4.30;2.70;;;22.60;94.50;;;;;;5060742;28;20090;-69
2023/10/13 10:11:54;;;;;;;8.73;2.80;;;22.70;93.80;;;;;;5078718;28;20064;-68
2023/10/13 10:14:42;;;;;;;6.07;2.20;;;22.80;94.50;;;;;;5067804;28;20043;-68
2023/10/13 10:17:14;;;;;;;4.70;1.83;;;22.90;93.50;;;;;;5079701;28;20048;-69
2023/10/13 10:19:54;;;;;;;8.85;2.97;;;23.10;94.30;;;;;;5068916;28;20420;-69
2023/10/13 10:22:33;;;;;;;6.30;2.45;;;23.10;93.70;;;;;;5081729;28;20040;-68
2023/10/13 10:25:06;;;;;;;5.60;2.05;;;23.30;92.40;;;;;;5083251;28;20036;-70
2023/10/13 10:27:38;;;;;;;8.40;2.08;;;23.30;92.50;;;;;;5065835;28;20048;-69
2023/10/13 10:30:13;;;;;;;9.23;1.92;;;23.40;92.50;;;;;;5081204;28;20040;-69
2023/10/13 10:32:53;;;;;;;9.65;2.13;;;23.50;92.40;;;;;;5070982;28;20044;-69
2023/10/13 10:35:29;;;;;;;5.93;2.08;;;23.60;92.40;;;;;;5061246;28;20048;-69
2023/10/13 10:38:23;;;;;;;12.43;3.47;;;23.70;91.30;;;;;;5058345;28;20044;-68
2023/10/13 10:41:00;;;;;;;;;;;23.70;90.90;;;;;;5069110;28;20079;-69
2023/10/13 10:43:42;;;;;;;12.02;2.65;;;23.70;90.90;;;;;;5080799;28;20018;-69
2023/10/13 10:46:28;;;;;;;5.32;2.65;;;23.80;92.30;;;;;;5079826;28;20032;-69
2023/10/13 10:49:00;;;;;;;8.35;3.05;;;23.80;92.40;;;;;;5061380;28;20203;-68
2023/10/13 10:51:40;;;;;;;10.95;3.65;;;23.90;92.60;;;;;;5085850;28;20040;-68
2023/10/13 10:54:20;;;;;;;6.15;1.70;;;23.90;91.70;;;;;;5068108;28;20036;-69
2023/10/13 10:56:56;;;;;;;6.07;2.50;;;23.90;91.30;;;;;;5073239;28;20044;-69
2023/10/13 10:59:37;;;;;;;6.38;2.15;;;23.90;91.30;;;;;;5064428;28;20044;-69
2023/10/13 11:02:09;;;;;;;4.88;2.35;;;23.90;90.30;;;;;;5071672;28;20051;-68
2023/10/13 11:04:50;;;;;;;8.15;2.55;;;23.90;90.80;;;;;;5056754;28;20040;-69
2023/10/13 11:07:27;;;;;;;9.38;2.90;;;23.90;91.40;;;;;;5067751;28;20040;-69
2023/10/13 11:10:06;;;;;;;8.98;2.10;;;24.00;91.80;;;;;;5079030;28;20028;-67
2023/10/13 11:12:36;;;;;;;5.75;2.35;;;24.10;91.00;;;;;;5079604;28;20572;-69
2023/10/13 11:15:21;;;;;;;5.95;2.72;;;24.20;91.20;;;;;;5081214;28;20043;-69
2023/10/13 11:17:58;;;;;;;7.93;2.33;;;24.40;88.60;;;;;;5057872;28;20048;-69
2023/10/13 11:20:43;;;;;;;8.02;1.95;;;24.50;87.00;;;;;;5080770;28;20167;-67
2023/10/13 11:23:15;;;;;;;5.80;1.92;;;24.50;86.80;;;;;;5065962;28;20522;-69
2023/10/13 11:26:00;;;;;;;4.47;1.77;;;24.50;86.40;;;;;;5083496;28;20483;-68
2023/10/13 11:28:34;;;;;;;5.47;2.45;;;24.60;87.40;;;;;;5082575;28;20123;-69
2023/10/13 11:31:19;;;;;;;7.85;2.92;;;24.60;86.20;;;;;;5070131;28;20471;-67
2023/10/13 11:33:55;;;;;;;8.20;2.45;;;24.70;86.00;;;;;;5074815;28;20726;-68
2023/10/13 11:36:32;;;;;;;5.25;2.40;;;24.70;84.10;;;;;;5065448;28;20072;-67
2023/10/13 11:39:07;;;;;;;9.82;2.42;;;24.70;87.60;;;;;;5054172;28;20040;-68
2023/10/13 11:41:46;;;;;;;5.70;2.10;;;24.80;87.40;;;;;;5080119;28;20040;-69
2023/10/13 11:46:55;;;;;;;11.35;4.32;;;25.10;83.90;;;;;;5079338;28;20052;-69
2023/10/13 11:52:15;;;;;;;9.27;3.08;;;25.20;83.20;;;;;;5081411;28;20068;-69
2023/10/13 11:54:42;;;;;;;5.07;2.30;;;25.30;81.50;;;;;;5076240;28;20067;-67
2023/10/13 11:57:17;;;;;;;5.93;2.00;;;25.40;81.50;;;;;;5074819;28;20039;-70
2023/10/13 11:59:57;;;;;;;6.93;2.28;;;25.40;81.50;;;;;;5086065;28;20415;-67
2023/10/13 12:05:48;;;;;;;11.05;2.35;;;25.60;81.10;;;;;;5077157;28;20032;-69
2023/10/13 12:08:23;;;;;;;7.47;2.13;;;25.60;79.70;;;;;;5082633;28;20039;-68
2023/10/13 12:11:30;;;;;;;6.22;2.15;;;25.70;81.80;;;;;;5071703;28;20526;-68
2023/10/13 12:13:52;;;;;;;6.72;2.58;;;25.70;78.50;;;;;;5081224;28;20040;-68
2023/10/13 12:16:34;;;;;;;4.97;2.28;;;25.70;77.90;;;;;;5063284;28;20051;-69
2023/10/13 12:19:11;;;;;;;5.45;2.83;;;25.70;79.50;;;;;;5063245;28;20059;-69
2023/10/13 12:21:44;;;;;;;8.60;2.63;;;25.70;79.20;;;;;;5091362;28;20038;-69
2023/10/13 12:24:39;;;;;;;9.98;2.25;;;25.80;79.30;;;;;;5068666;28;20420;-68
2023/10/13 12:27:19;;;;;;;6.65;2.53;;;25.90;80.90;;;;;;5085884;28;20039;-70
2023/10/13 12:29:51;;;;;;;5.97;2.28;;;26.00;78.50;;;;;;5083613;28;20084;-70
2023/10/13 12:32:30;;;;;;;8.32;2.60;;;25.90;78.20;;;;;;5081008;28;20039;-70
2023/10/13 12:54:15;;;;;;;8.50;4.97;;;26.10;75.80;;;;;;5085280;28;20044;-69
2023/10/13 12:56:47;;;;;;;8.25;2.72;;;26.10;77.10;;;;;;5083624;28;20131;-69
2023/10/13 12:59:13;;;;;;;9.13;3.20;;;26.10;75.70;;;;;;5059817;28;20044;-70
2023/10/13 13:01:46;;;;;;;9.45;2.78;;;26.10;76.60;;;;;;5058254;28;20052;-69
2023/10/13 13:04:20;;;;;;;5.05;2.50;;;26.00;76.60;;;;;;5061465;28;20040;-67
2023/10/13 13:06:53;;;;;;;5.80;2.63;;;26.00;75.70;;;;;;5058708;28;20032;-66
2023/10/13 13:09:25;;;;;;;8.65;2.22;;;26.00;76.60;;;;;;5062917;28;20401;-68
2023/10/13 13:11:57;;;;;;;5.55;2.85;;;26.10;78.30;;;;;;5086833;28;20036;-67
2023/10/13 13:14:29;;;;;;;8.55;3.97;;;26.20;77.20;;;;;;5063301;28;20059;-67
2023/10/13 13:17:04;;;;;;;7.95;3.00;;;26.20;77.80;;;;;;5078186;28;20051;-69
2023/10/13 13:19:40;;;;;;;8.13;2.00;;;26.10;76.10;;;;;;5080865;28;20032;-68
2023/10/13 13:22:12;;;;;;;6.93;2.85;;;26.20;74.90;;;;;;5081418;28;20036;-69
2023/10/13 13:24:46;;;;;;;7.75;2.80;;;26.20;75.00;;;;;;5075662;28;20064;-68
2023/10/13 13:27:19;;;;;;;6.70;2.53;;;26.20;74.40;;;;;;5060910;28;20039;-69
2023/10/13 13:29:46;;;;;;;9.02;2.45;;;26.20;78.10;;;;;;5079213;28;20040;-67
2023/10/13 13:32:24;;;;;;;7.68;2.50;;;26.20;76.80;;;;;;5062080;28;20052;-67
2023/10/13 13:35:04;;;;;;;4.13;2.17;;;26.20;75.60;;;;;;5061341;28;20044;-68
2023/10/13 13:37:37;;;;;;;6.18;2.88;;;26.30;78.30;;;;;;5082898;28;20408;-71
2023/10/13 13:40:15;;;;;;;8.55;2.67;;;26.30;78.60;;;;;;5055542;28;20049;-68
2023/10/13 13:42:47;;;;;;;5.40;2.80;;;26.40;77.10;;;;;;5080882;28;20032;-69
2023/10/13 13:45:27;;;;;;;5.13;2.45;;;26.40;74.10;;;;;;5059494;28;20040;-68
2023/10/13 13:47:59;;;;;;;6.00;2.70;;;26.40;74.80;;;;;;5060822;28;20131;-68
2023/10/13 13:50:32;;;;;;;4.72;3.28;;;26.40;73.10;;;;;;5056640;28;20428;-67
2023/10/13 13:53:02;;;;;;;8.07;3.35;;;26.40;72.40;;;;;;5058593;28;20040;-67
2023/10/13 13:55:34;;;;;;;6.68;2.45;;;26.40;73.90;;;;;;5077626;28;20048;-67
2023/10/13 13:58:08;;;;;;;5.93;2.42;;;26.40;74.50;;;;;;5062028;28;20052;-67
2023/10/13 14:00:48;;;;;;;5.47;2.53;;;26.40;75.10;;;;;;5083270;28;20044;-67
2023/10/13 14:03:32;;;;;;;5.82;2.60;;;26.40;76.80;;;;;;5062500;28;20057;-68
2023/10/13 14:05:59;;;;;;;6.63;2.58;;;26.40;72.20;;;;;;5077550;28;20068;-69
2023/10/13 14:08:31;;;;;;;5.40;2.42;;;26.40;71.20;;;;;;5062605;28;20135;-68
2023/10/13 14:13:51;;;;;;;5.45;2.60;;;26.50;71.50;;;;;;5061683;28;20064;-69
2023/10/13 14:16:23;;;;;;;8.73;2.78;;;26.50;72.60;;;;;;5056360;28;20037;-68
2023/10/13 14:18:54;;;;;;;5.80;2.85;;;26.50;71.30;;;;;;5078928;28;20052;-69
2023/10/13 14:21:27;;;;;;;7.53;2.38;;;26.50;70.40;;;;;;5049829;28;20052;-67
2023/10/13 14:24:01;;;;;;;8.65;2.67;;;26.50;71.30;;;;;;5066856;28;20060;-69
2023/10/13 14:26:28;;;;;;;5.82;2.45;;;26.50;70.80;;;;;;5050333;28;20538;-68
2023/10/13 14:29:01;;;;;;;4.05;2.60;;;26.40;71.10;;;;;;5075193;28;20073;-68
2023/10/13 14:31:37;;;;;;;6.30;2.63;;;26.40;72.10;;;;;;5061740;28;20554;-68
2023/10/13 14:34:10;;;;;;;5.55;2.80;;;26.30;70.20;;;;;;5060055;28;20090;-68
2023/10/13 14:36:48;;;;;;;4.25;2.95;;;26.20;72.00;;;;;;5052864;28;20531;-69
2023/10/13 14:39:20;;;;;;;8.25;3.35;;;26.10;71.30;;;;;;5080468;28;20054;-68
2023/10/13 14:41:52;;;;;;;10.90;2.70;;;26.20;71.60;;;;;;5075093;28;20055;-68
2023/10/13 14:44:26;;;;;;;5.72;2.97;;;26.10;72.70;;;;;;5079040;28;20674;-68
2023/10/13 14:46:54;;;;;;;5.70;2.92;;;26.10;71.10;;;;;;5058977;28;20046;-68
2023/10/13 14:49:22;;;;;;;11.18;3.50;;;26.10;71.00;;;;;;5077825;28;20503;-68
2023/10/13 14:51:49;;;;;;;6.53;2.63;;;26.10;73.50;;;;;;5081749;28;20039;-68
2023/10/13 14:54:32;;;;;;;9.30;2.78;;;26.20;74.30;;;;;;5082175;28;20032;-65
2023/10/13 14:57:04;;;;;;;6.07;2.58;;;26.20;73.10;;;;;;5065102;28;20067;-68
2023/10/13 14:59:38;;;;;;;6.30;3.00;;;26.20;73.50;;;;;;5089304;28;20747;-68
2023/10/13 15:02:10;;;;;;;4.85;2.90;;;26.30;75.10;;;;;;5082712;28;20036;-67
2023/10/13 15:04:42;;;;;;;8.48;2.70;;;26.40;74.60;;;;;;5063298;28;20048;-67
2023/10/13 15:07:16;;;;;;;6.65;2.70;;;26.50;74.50;;;;;;5084923;28;20028;-68
2023/10/13 15:09:48;;;;;;;4.38;2.80;;;26.60;79.20;;;;;;5086623;28;20048;-68
2023/10/13 15:12:20;;;;;;;7.55;2.63;;;26.70;75.70;;;;;;5080959;28;20479;-68
2023/10/13 15:14:56;;;;;;;5.07;2.90;;;26.80;73.30;;;;;;5072878;28;20044;-68
2023/10/13 15:17:29;;;;;;;6.57;2.95;;;26.90;73.90;;;;;;5069112;28;20043;-66
2023/10/13 15:19:56;;;;;;;5.38;2.83;;;27.10;72.90;;;;;;5065627;28;20044;-67
2023/10/13 15:22:28;;;;;;;6.78;2.70;;;27.30;74.40;;;;;;5082553;28;20109;-69
2023/10/13 15:25:20;;;;;;;5.80;2.97;;;27.40;73.20;;;;;;5072626;28;20064;-66
2023/10/13 15:28:02;;;;;;;6.60;3.35;;;27.50;76.00;;;;;;5066868;28;20131;-67
2023/10/13 15:30:57;;;;;;;8.35;2.80;;;27.60;76.00;;;;;;5084938;28;20412;-68
2023/10/13 15:33:30;;;;;;;8.38;3.30;;;27.50;74.20;;;;;;5062135;28;20044;-67
2023/10/13 15:36:03;;;;;;;5.07;2.88;;;27.50;75.20;;;;;;5071223;28;20044;-68
2023/10/13 15:38:31;;;;;;;8.30;3.03;;;27.40;74.00;;;;;;5071473;28;20090;-68
2023/10/13 15:41:04;;;;;;;6.03;2.85;;;27.40;75.80;;;;;;5084751;28;20116;-67
2023/10/13 15:43:36;;;;;;;9.95;3.35;;;27.40;78.10;;;;;;5071891;28;21688;-66
2023/10/13 15:46:16;;;;;;;7.25;3.17;;;27.20;77.70;;;;;;5071467;28;20526;-68
2023/10/13 15:48:52;;;;;;;6.88;2.67;;;27.30;79.50;;;;;;5064333;28;20043;-66
2023/10/13 15:51:20;;;;;;;12.65;3.10;;;27.20;79.70;;;;;;5063722;28;20496;-66
2023/10/13 15:53:52;;;;;;;8.77;3.13;;;27.10;79.60;;;;;;5083564;28;20416;-66
2023/10/13 15:56:24;;;;;;;14.80;3.72;;;26.80;81.30;;;;;;5067139;28;20294;-69
2023/10/13 15:58:55;;;;;;;8.68;3.42;;;26.60;82.60;;;;;;5080836;28;20040;-68
2023/10/13 16:01:23;;;;;;;19.17;3.60;;;26.40;82.00;;;;;;5076895;28;20733;-67
2023/10/13 16:03:55;;;;;;;14.80;3.70;;;25.90;83.00;;;;;;5082807;28;20121;-67
2023/10/13 16:06:25;;;;;;;12.05;3.40;;;25.40;83.90;;;;;;5064838;28;20033;-67
2023/10/13 16:08:57;;;;;;;18.50;3.65;;;24.90;85.60;;;;;;5080354;28;20041;-67
2023/10/13 16:11:29;;;;;;;13.27;4.00;;;24.50;87.70;;;;;;5056850;28;20526;-68
2023/10/13 16:14:05;;;;;;;10.75;3.45;;;24.10;88.20;;;;;;5058272;28;20043;-68
2023/10/13 16:16:34;;;;;;;14.80;4.55;;;23.70;89.60;;;;;;5080271;28;20048;-68
2023/10/13 16:19:06;;;;;;;21.08;3.47;;;23.50;90.40;;;;;;5078410;28;20047;-67
2023/10/13 16:21:41;;;;;;;12.00;3.70;;;23.20;91.20;;;;;;5067581;28;20063;-68
2023/10/13 16:24:17;;;;;;;8.50;3.10;;;23.00;91.10;;;;;;5060553;28;20054;-69
2023/10/13 16:26:55;;;;;;;10.00;3.33;;;22.80;91.70;;;;;;5080811;28;20048;-68
2023/10/13 16:29:22;;;;;;;14.32;3.10;;;22.50;91.80;;;;;;5060354;28;20524;-69
2023/10/13 16:31:54;;;;;;;5.78;2.95;;;22.30;92.00;;;;;;5069882;28;20048;-68
2023/10/13 16:34:21;;;;;;;9.30;3.42;;;22.10;92.30;;;;;;5064338;28;20034;-68
2023/10/13 16:36:55;;;;;;;5.05;3.38;;;21.90;92.50;;;;;;5061086;28;20157;-67
2023/10/13 16:39:22;;;;;;;9.70;3.38;;;21.80;92.40;;;;;;5060195;28;20068;-68
2023/10/13 16:41:55;;;;;;;10.75;3.45;;;21.80;92.50;;;;;;5080517;28;20535;-68
2023/10/13 16:44:27;;;;;;;7.53;3.40;;;21.70;92.70;;;;;;5067534;28;20064;-68
2023/10/13 16:46:59;;;;;;;5.90;3.33;;;21.60;92.90;;;;;;5075891;28;20049;-68
2023/10/13 16:49:31;;;;;;;5.80;3.10;;;21.50;92.80;;;;;;5066208;28;20413;-69